Time;durP1;ratioP1;P1;durP2;ratioP2;P2;SDS_P1;SDS_P2;PMS_P1;PMS_P2;Temp;Humidity;BMP_temperature;BMP_pressure;BME280_temperature;BME280_humidity;BME280_pressure;Samples;Min_cycle;Max_cycle;Signal;HPM_P1;HPM_P2
2021/01/02 00:00:51;;;;;;;20.80;15.20;;;3.20;1.00;;;;;;5104169;28;20019;-87
2021/01/02 00:03:22;;;;;;;23.10;14.65;;;3.30;1.00;;;;;;5114806;28;20076;-87
2021/01/02 00:06:01;;;;;;;21.10;13.68;;;3.10;1.00;;;;;;5110883;28;20604;-87
2021/01/02 00:08:30;;;;;;;19.42;14.13;;;3.20;1.00;;;;;;5113537;28;20043;-87
2021/01/02 00:11:17;;;;;;;22.42;14.98;;;3.50;1.00;;;;;;5114934;27;20437;-87
2021/01/02 00:14:13;;;;;;;21.40;14.38;;;3.30;1.00;;;;;;5113705;28;20030;-87
2021/01/02 00:17:26;;;;;;;22.08;15.05;;;3.10;1.00;;;;;;5113548;28;20016;-87
2021/01/02 00:20:03;;;;;;;21.85;14.70;;;3.10;1.00;;;;;;5092087;28;20051;-87
2021/01/02 00:22:45;;;;;;;19.55;14.25;;;3.00;1.00;;;;;;5085941;28;20110;-87
2021/01/02 00:25:13;;;;;;;24.40;14.93;;;3.10;1.00;;;;;;5071903;28;20047;-86
2021/01/02 00:28:05;;;;;;;19.38;14.30;;;3.50;1.00;;;;;;5055147;28;20021;-87
2021/01/02 00:31:01;;;;;;;20.88;13.80;;;3.00;1.00;;;;;;5071962;28;20107;-87
2021/01/02 00:33:38;;;;;;;20.90;13.35;;;3.00;1.00;;;;;;5071450;28;20032;-87
2021/01/02 00:36:16;;;;;;;24.30;15.05;;;3.00;1.00;;;;;;5090899;28;20114;-86
2021/01/02 00:38:42;;;;;;;20.50;14.60;;;3.10;1.00;;;;;;5074516;28;20059;-86
2021/01/02 00:41:11;;;;;;;20.05;13.85;;;3.30;1.00;;;;;;5074599;28;20031;-87
2021/01/02 00:43:38;;;;;;;23.77;14.27;;;3.00;1.00;;;;;;5065101;28;20127;-87
2021/01/02 00:46:03;;;;;;;20.45;14.23;;;3.00;1.00;;;;;;5071323;28;20082;-87
2021/01/02 00:48:31;;;;;;;17.95;13.35;;;3.10;1.00;;;;;;5054335;28;20017;-86
2021/01/02 00:51:01;;;;;;;22.27;14.52;;;3.50;1.00;;;;;;5054587;28;20486;-86
2021/01/02 00:53:54;;;;;;;18.75;13.15;;;3.10;1.00;;;;;;5054712;28;20077;-87
2021/01/02 00:56:28;;;;;;;20.27;13.80;;;3.20;1.00;;;;;;5078130;28;20036;-87
2021/01/02 00:59:31;;;;;;;19.38;13.55;;;3.10;1.00;;;;;;5105893;28;20039;-87
2021/01/02 01:02:32;;;;;;;20.13;13.13;;;3.10;1.00;;;;;;5113808;28;20035;-86
2021/01/02 01:05:05;;;;;;;21.67;14.55;;;3.00;1.00;;;;;;5110728;28;20059;-87
2021/01/02 01:07:36;;;;;;;21.10;14.73;;;3.10;1.00;;;;;;5113579;28;20493;-86
2021/01/02 01:10:07;;;;;;;22.65;14.18;;;3.00;1.00;;;;;;5113643;28;20515;-87
2021/01/02 01:12:42;;;;;;;25.13;14.18;;;3.00;1.00;;;;;;5111134;28;20055;-86
2021/01/02 01:15:10;;;;;;;19.63;13.48;;;3.10;1.00;;;;;;5093193;28;20028;-86
2021/01/02 01:17:48;;;;;;;20.70;13.82;;;3.00;1.00;;;;;;5091852;28;20063;-87
2021/01/02 01:20:17;;;;;;;20.20;13.60;;;3.30;1.00;;;;;;5091886;28;20085;-86
2021/01/02 01:23:11;;;;;;;18.75;13.23;;;3.00;1.00;;;;;;5091792;28;20073;-87
2021/01/02 01:26:16;;;;;;;22.65;14.45;;;2.90;1.00;;;;;;5084449;28;20405;-87
2021/01/02 01:28:46;;;;;;;20.70;13.68;;;2.80;1.00;;;;;;5092798;28;20055;-87
2021/01/02 01:31:17;;;;;;;19.88;13.77;;;3.10;1.00;;;;;;5091466;28;20118;-86
2021/01/02 01:33:48;;;;;;;20.52;14.15;;;2.80;1.00;;;;;;5091765;28;20443;-86
2021/01/02 01:36:17;;;;;;;19.60;13.90;;;3.00;1.00;;;;;;5091906;28;20035;-86
2021/01/02 01:38:44;;;;;;;20.17;14.07;;;3.00;1.00;;;;;;5091618;28;20512;-86
2021/01/02 01:41:16;;;;;;;21.20;13.43;;;2.90;1.00;;;;;;5092887;28;20107;-86
2021/01/02 01:44:10;;;;;;;22.38;13.75;;;3.20;1.00;;;;;;5105941;28;20384;-87
2021/01/02 01:46:49;;;;;;;20.58;13.82;;;2.90;1.00;;;;;;5112896;28;20047;-86
2021/01/02 01:49:30;;;;;;;20.58;13.90;;;2.80;1.00;;;;;;5111673;28;20538;-87
2021/01/02 01:51:56;;;;;;;19.77;13.40;;;2.90;1.00;;;;;;5113029;28;20138;-87
2021/01/02 01:54:59;;;;;;;23.35;13.23;;;2.70;1.00;;;;;;5111810;28;20482;-86
2021/01/02 01:57:28;;;;;;;20.08;13.73;;;2.80;1.00;;;;;;5110087;28;20361;-86
2021/01/02 01:59:57;;;;;;;19.23;13.00;;;2.70;1.00;;;;;;5110538;28;20027;-87
2021/01/02 02:02:47;;;;;;;18.85;13.02;;;3.30;1.00;;;;;;5108327;28;20057;-87
2021/01/02 02:05:17;;;;;;;19.63;13.55;;;2.70;1.00;;;;;;5111540;28;20027;-86
2021/01/02 02:08:02;;;;;;;22.73;15.35;;;2.70;1.00;;;;;;5110165;28;20086;-86
2021/01/02 02:10:36;;;;;;;21.80;14.40;;;2.70;1.00;;;;;;5112881;28;20472;-86
2021/01/02 02:13:16;;;;;;;20.98;14.23;;;2.80;1.00;;;;;;5110493;28;20043;-86
2021/01/02 02:15:57;;;;;;;22.02;13.73;;;2.80;1.00;;;;;;5111253;28;20019;-87
2021/01/02 02:18:28;;;;;;;23.65;15.10;;;2.90;1.00;;;;;;5112725;28;20031;-87
2021/01/02 02:20:59;;;;;;;20.73;14.57;;;2.80;1.00;;;;;;5112744;28;20012;-87
2021/01/02 02:23:40;;;;;;;23.42;14.57;;;2.90;1.00;;;;;;5111420;28;20020;-86
2021/01/02 02:26:09;;;;;;;21.65;14.25;;;2.60;1.00;;;;;;5108682;28;20103;-86
2021/01/02 02:28:35;;;;;;;24.33;15.50;;;2.70;1.00;;;;;;5092283;28;20486;-87
2021/01/02 02:31:07;;;;;;;22.88;15.07;;;2.80;1.00;;;;;;5091249;28;20026;-87
2021/01/02 02:33:35;;;;;;;23.30;14.93;;;2.70;1.00;;;;;;5091104;28;20064;-87
2021/01/02 02:36:06;;;;;;;22.67;15.95;;;3.30;1.00;;;;;;5091021;28;20027;-86
2021/01/02 02:38:38;;;;;;;23.92;14.98;;;2.80;1.00;;;;;;5092024;28;20032;-87
2021/01/02 02:41:09;;;;;;;24.77;16.25;;;2.80;1.00;;;;;;5090382;28;20016;-86
2021/01/02 02:43:39;;;;;;;26.33;17.25;;;2.70;1.00;;;;;;5090756;28;20036;-86
2021/01/02 02:46:10;;;;;;;25.95;16.65;;;3.00;1.00;;;;;;5091071;28;20024;-87
2021/01/02 02:48:38;;;;;;;26.88;16.60;;;3.10;1.00;;;;;;5090860;28;20511;-86
2021/01/02 02:51:04;;;;;;;23.25;15.90;;;2.70;1.00;;;;;;5091072;28;20401;-87
2021/01/02 02:53:30;;;;;;;25.27;16.42;;;2.80;1.00;;;;;;5092138;28;20051;-87
2021/01/02 02:55:56;;;;;;;25.77;16.83;;;2.80;1.00;;;;;;5092087;28;20071;-88
2021/01/02 02:58:21;;;;;;;25.23;15.85;;;2.60;1.00;;;;;;5114249;28;20515;-89
2021/01/02 03:00:47;;;;;;;22.00;15.30;;;3.00;1.00;;;;;;5107110;28;20051;-89
2021/01/02 03:03:13;;;;;;;22.77;15.20;;;2.70;1.00;;;;;;5094515;28;20039;-89
2021/01/02 03:05:40;;;;;;;22.15;15.13;;;2.70;1.00;;;;;;5095842;28;20048;-89
2021/01/02 03:08:07;;;;;;;23.83;15.07;;;3.30;1.00;;;;;;5094505;28;20048;-88
2021/01/02 03:10:33;;;;;;;25.08;14.85;;;2.70;1.00;;;;;;5095506;28;20492;-89
2021/01/02 03:12:58;;;;;;;24.85;14.77;;;2.60;1.00;;;;;;5095344;28;20030;-89
2021/01/02 03:15:27;;;;;;;21.60;14.52;;;2.90;1.00;;;;;;5095418;28;20031;-89
2021/01/02 03:17:53;;;;;;;23.10;14.18;;;2.70;1.00;;;;;;5095781;28;20028;-89
2021/01/02 03:20:20;;;;;;;21.75;14.57;;;2.70;1.00;;;;;;5095717;28;20031;-89
2021/01/02 03:22:47;;;;;;;22.98;15.02;;;3.00;1.00;;;;;;5095749;28;20028;-87
2021/01/02 03:25:14;;;;;;;22.67;14.63;;;3.20;1.00;;;;;;5093493;28;20064;-87
2021/01/02 03:27:40;;;;;;;24.92;15.00;;;2.90;1.00;;;;;;5115748;28;20015;-87
2021/01/02 03:30:09;;;;;;;25.50;15.50;;;2.80;1.00;;;;;;5114706;28;20049;-87
2021/01/02 03:32:35;;;;;;;20.98;13.77;;;2.70;1.00;;;;;;5115713;28;20369;-87
2021/01/02 03:35:05;;;;;;;21.42;14.30;;;2.80;1.00;;;;;;5115868;28;20031;-87
2021/01/02 03:37:30;;;;;;;22.77;15.05;;;2.70;1.00;;;;;;5114250;28;20028;-87
2021/01/02 03:39:56;;;;;;;23.67;15.25;;;2.70;1.00;;;;;;5111127;28;20023;-86
2021/01/02 03:42:22;;;;;;;24.55;14.50;;;3.00;1.00;;;;;;5114229;28;20032;-87
2021/01/02 03:44:47;;;;;;;25.27;15.32;;;2.80;1.00;;;;;;5114239;28;20030;-87
2021/01/02 03:47:13;;;;;;;23.95;14.40;;;2.60;1.00;;;;;;5115712;28;20112;-87
2021/01/02 03:49:39;;;;;;;24.50;13.88;;;2.90;1.00;;;;;;5114224;28;20024;-87
2021/01/02 03:52:05;;;;;;;22.13;14.27;;;2.90;1.00;;;;;;5115119;28;20032;-87
2021/01/02 03:54:32;;;;;;;21.23;14.65;;;3.20;1.00;;;;;;5111004;28;20591;-87
2021/01/02 03:56:57;;;;;;;22.08;13.93;;;2.70;1.00;;;;;;5100432;28;20035;-87
2021/01/02 03:59:23;;;;;;;23.25;14.50;;;2.70;1.00;;;;;;5094575;28;20028;-87
2021/01/02 04:01:57;;;;;;;24.77;14.98;;;2.60;1.00;;;;;;5111507;28;20027;-87
2021/01/02 04:04:23;;;;;;;22.85;14.10;;;2.90;1.00;;;;;;5115151;28;20032;-87
2021/01/02 04:06:52;;;;;;;22.02;14.27;;;2.90;1.00;;;;;;5114984;28;20050;-87
2021/01/02 04:09:21;;;;;;;21.30;14.65;;;2.60;1.00;;;;;;5108015;28;20531;-87
2021/01/02 04:11:48;;;;;;;23.58;15.38;;;2.60;1.00;;;;;;5094527;28;20043;-87
2021/01/02 04:14:14;;;;;;;23.02;15.30;;;2.90;1.00;;;;;;5093557;28;20070;-87
2021/01/02 04:16:41;;;;;;;23.55;14.57;;;2.60;1.00;;;;;;5094421;28;20164;-87
2021/01/02 04:19:08;;;;;;;24.83;15.20;;;3.00;1.00;;;;;;5093201;28;20028;-87
2021/01/02 04:21:37;;;;;;;23.42;14.98;;;2.90;1.00;;;;;;5093017;28;20020;-87
2021/01/02 04:24:03;;;;;;;24.88;15.27;;;2.50;1.00;;;;;;5093385;28;20103;-86
2021/01/02 04:26:29;;;;;;;25.02;14.93;;;2.60;1.00;;;;;;5102232;28;20468;-87
2021/01/02 04:28:56;;;;;;;22.77;14.27;;;2.60;1.00;;;;;;5113551;28;20446;-86
2021/01/02 04:31:33;;;;;;;27.13;14.70;;;2.50;1.00;;;;;;5114629;28;20081;-87
2021/01/02 04:33:59;;;;;;;26.50;15.18;;;2.90;1.00;;;;;;5113132;28;20023;-87
2021/01/02 04:36:24;;;;;;;23.25;14.27;;;2.60;1.00;;;;;;5113237;28;20495;-86
2021/01/02 04:38:50;;;;;;;23.35;14.98;;;2.70;1.00;;;;;;5109840;28;20397;-86
2021/01/02 04:41:16;;;;;;;25.33;15.18;;;2.70;1.00;;;;;;5096945;28;20413;-87
2021/01/02 04:43:45;;;;;;;24.65;15.45;;;2.70;1.00;;;;;;5094064;28;20099;-86
2021/01/02 04:46:13;;;;;;;23.98;15.48;;;3.10;1.00;;;;;;5092566;28;20054;-87
2021/01/02 04:48:40;;;;;;;25.70;15.70;;;3.00;1.00;;;;;;5096443;28;20074;-87
2021/01/02 04:51:10;;;;;;;26.75;14.43;;;2.80;1.00;;;;;;5094077;28;20107;-87
2021/01/02 04:53:36;;;;;;;26.88;15.55;;;2.70;1.00;;;;;;5092095;28;20111;-87
2021/01/02 04:56:05;;;;;;;27.45;15.02;;;2.80;1.00;;;;;;5092387;28;20028;-87
2021/01/02 04:58:31;;;;;;;26.08;16.17;;;2.90;1.00;;;;;;5092215;28;20476;-87
2021/01/02 05:00:57;;;;;;;25.88;15.57;;;3.20;1.00;;;;;;5103103;28;20404;-87
2021/01/02 05:03:23;;;;;;;25.75;16.30;;;3.20;1.00;;;;;;5095458;27;20028;-86
2021/01/02 05:05:50;;;;;;;25.10;15.50;;;2.80;1.00;;;;;;5092351;28;20031;-86
2021/01/02 05:08:15;;;;;;;27.55;15.75;;;2.90;1.00;;;;;;5091876;28;20075;-86
2021/01/02 05:10:44;;;;;;;24.90;15.25;;;2.90;1.00;;;;;;5093564;28;20096;-87
2021/01/02 05:13:14;;;;;;;24.40;14.50;;;3.10;1.00;;;;;;5092236;28;20497;-87
2021/01/02 05:15:41;;;;;;;26.88;16.27;;;2.80;1.00;;;;;;5093287;28;20107;-86
2021/01/02 05:18:06;;;;;;;28.02;16.52;;;2.80;1.00;;;;;;5093809;28;20024;-87
2021/01/02 05:20:32;;;;;;;25.30;15.77;;;3.10;1.00;;;;;;5092473;28;20485;-86
2021/01/02 05:23:10;;;;;;;27.08;16.40;;;2.90;1.00;;;;;;5091732;28;20024;-86
2021/01/02 05:25:36;;;;;;;27.83;16.00;;;2.80;1.00;;;;;;5091893;28;20028;-87
2021/01/02 05:28:03;;;;;;;27.27;16.52;;;3.00;1.00;;;;;;5091949;28;20521;-87
2021/01/02 05:30:35;;;;;;;28.08;17.13;;;2.80;1.00;;;;;;5091707;28;20060;-87
2021/01/02 05:33:07;;;;;;;27.92;16.70;;;2.80;1.00;;;;;;5108928;28;20028;-87
2021/01/02 05:35:36;;;;;;;26.70;16.42;;;2.80;1.00;;;;;;5112031;28;20038;-86
2021/01/02 05:38:14;;;;;;;25.75;16.65;;;2.90;1.00;;;;;;5110319;28;20012;-87
2021/01/02 05:40:43;;;;;;;27.67;16.60;;;2.90;1.00;;;;;;5093286;28;20020;-87
2021/01/02 05:43:09;;;;;;;28.77;16.45;;;2.90;1.00;;;;;;5091620;28;20016;-86
2021/01/02 05:45:35;;;;;;;27.50;17.35;;;3.30;1.00;;;;;;5092782;28;20035;-87
2021/01/02 05:48:15;;;;;;;26.98;16.63;;;3.20;1.00;;;;;;5092925;28;20061;-87
2021/01/02 05:50:43;;;;;;;30.35;17.42;;;2.80;1.00;;;;;;5092705;28;20035;-87
2021/01/02 05:53:25;;;;;;;26.92;16.58;;;2.70;1.00;;;;;;5095139;28;20095;-87
2021/01/02 05:56:11;;;;;;;28.13;17.17;;;2.80;1.00;;;;;;5112908;28;20024;-86
2021/01/02 05:58:46;;;;;;;27.85;17.38;;;2.80;1.00;;;;;;5108226;28;20076;-86
2021/01/02 06:01:17;;;;;;;27.83;16.65;;;2.80;1.00;;;;;;5112877;28;20157;-86
2021/01/02 06:03:48;;;;;;;30.70;18.00;;;2.90;1.00;;;;;;5113013;28;20031;-86
2021/01/02 06:06:16;;;;;;;30.45;17.45;;;2.80;1.00;;;;;;5112509;28;20016;-86
2021/01/02 06:08:43;;;;;;;27.77;16.92;;;3.00;1.00;;;;;;5111554;28;20044;-87
2021/01/02 06:11:14;;;;;;;27.30;17.35;;;2.90;1.00;;;;;;5112081;28;20031;-86
2021/01/02 06:13:43;;;;;;;30.42;17.45;;;2.90;1.00;;;;;;5112885;28;20027;-87
2021/01/02 06:16:09;;;;;;;30.48;17.02;;;3.10;1.00;;;;;;5112838;28;20023;-87
2021/01/02 06:18:41;;;;;;;31.83;18.33;;;3.00;1.00;;;;;;5112635;28;20055;-86
2021/01/02 06:21:12;;;;;;;26.90;17.33;;;2.90;1.00;;;;;;5111482;28;20104;-87
2021/01/02 06:23:39;;;;;;;31.10;18.85;;;3.30;1.00;;;;;;5112586;28;20016;-86
2021/01/02 06:26:07;;;;;;;32.03;18.38;;;3.20;1.00;;;;;;5108802;28;20024;-87
2021/01/02 06:28:34;;;;;;;30.60;18.33;;;3.00;1.00;;;;;;5112644;28;20115;-87
2021/01/02 06:31:04;;;;;;;30.75;18.48;;;3.40;1.00;;;;;;5114059;28;20042;-87
2021/01/02 06:33:30;;;;;;;34.60;19.23;;;3.40;1.00;;;;;;5116844;28;20023;-87
2021/01/02 06:35:57;;;;;;;29.73;17.73;;;3.00;1.00;;;;;;5116442;28;20425;-86
2021/01/02 06:38:24;;;;;;;31.08;18.02;;;3.00;1.00;;;;;;5116723;28;20031;-87
2021/01/02 06:40:53;;;;;;;33.10;18.13;;;3.00;1.00;;;;;;5105066;28;20035;-87
2021/01/02 06:43:21;;;;;;;30.00;17.95;;;3.00;1.00;;;;;;5096600;28;20016;-87
2021/01/02 06:45:48;;;;;;;30.92;19.67;;;3.00;1.00;;;;;;5094898;28;20440;-86
2021/01/02 06:48:17;;;;;;;30.83;18.27;;;3.00;1.00;;;;;;5095210;28;20028;-87
2021/01/02 06:50:46;;;;;;;32.78;19.05;;;3.00;1.00;;;;;;5095937;28;20035;-87
2021/01/02 06:53:25;;;;;;;32.72;19.73;;;2.90;1.00;;;;;;5094632;28;20067;-86
2021/01/02 06:56:04;;;;;;;34.53;19.73;;;3.00;1.00;;;;;;5098816;28;20055;-86
2021/01/02 06:58:46;;;;;;;31.85;18.50;;;2.90;1.00;;;;;;5116448;28;20055;-86
2021/01/02 07:01:18;;;;;;;31.48;19.10;;;2.90;1.00;;;;;;5116326;28;20386;-86
2021/01/02 07:03:50;;;;;;;31.05;18.77;;;3.10;1.00;;;;;;5114653;28;20020;-86
2021/01/02 07:06:25;;;;;;;31.05;18.42;;;2.90;1.00;;;;;;5115120;28;20149;-86
2021/01/02 07:08:52;;;;;;;28.55;17.50;;;2.90;1.00;;;;;;5114560;28;20046;-86
2021/01/02 07:11:22;;;;;;;33.45;18.55;;;3.10;1.00;;;;;;5096759;28;20075;-87
2021/01/02 07:13:48;;;;;;;29.67;17.95;;;3.00;1.00;;;;;;5095640;28;20024;-86
2021/01/02 07:16:32;;;;;;;35.28;20.25;;;3.40;1.00;;;;;;5094345;28;20081;-86
2021/01/02 07:18:58;;;;;;;33.55;18.63;;;3.00;1.00;;;;;;5093872;28;20119;-87
2021/01/02 07:21:36;;;;;;;28.75;17.38;;;2.90;1.00;;;;;;5094206;28;20111;-87
2021/01/02 07:24:20;;;;;;;33.17;19.00;;;2.90;1.00;;;;;;5093549;28;20508;-86
2021/01/02 07:26:47;;;;;;;31.48;18.73;;;3.00;1.00;;;;;;5094907;28;20374;-86
2021/01/02 07:29:19;;;;;;;30.30;18.50;;;3.00;1.00;;;;;;5094167;28;20158;-86
2021/01/02 07:31:46;;;;;;;32.15;19.52;;;3.00;1.00;;;;;;5094122;28;20460;-86
2021/01/02 07:34:24;;;;;;;32.67;18.45;;;3.00;1.00;;;;;;5095049;28;20032;-86
2021/01/02 07:36:50;;;;;;;32.03;18.48;;;3.10;1.00;;;;;;5093924;28;20032;-86
2021/01/02 07:39:17;;;;;;;32.00;19.90;;;3.10;1.00;;;;;;5093744;28;20027;-86
2021/01/02 07:41:44;;;;;;;34.38;19.23;;;3.30;1.00;;;;;;5095201;28;20039;-87
2021/01/02 07:44:10;;;;;;;33.22;18.95;;;3.10;1.00;;;;;;5093038;28;20028;-86
2021/01/02 07:46:44;;;;;;;36.15;20.52;;;3.00;1.00;;;;;;5094993;28;20024;-86
2021/01/02 07:49:10;;;;;;;32.45;19.98;;;3.20;1.00;;;;;;5093391;28;20031;-86
2021/01/02 07:51:37;;;;;;;34.45;20.10;;;3.00;1.00;;;;;;5095059;28;20389;-86
2021/01/02 07:54:04;;;;;;;33.25;20.48;;;3.30;1.00;;;;;;5092691;28;20042;-86
2021/01/02 07:56:37;;;;;;;35.58;21.10;;;3.10;1.00;;;;;;5093780;28;20024;-86
2021/01/02 07:59:21;;;;;;;33.58;20.13;;;3.20;1.00;;;;;;5114339;28;20374;-86
2021/01/02 08:02:09;;;;;;;34.50;20.10;;;3.30;1.00;;;;;;5114691;28;20031;-86
2021/01/02 08:04:36;;;;;;;30.40;18.55;;;3.30;1.00;;;;;;5115146;28;20433;-86
2021/01/02 08:07:06;;;;;;;33.40;20.27;;;3.40;1.00;;;;;;5113725;28;20027;-87
2021/01/02 08:09:33;;;;;;;38.63;21.33;;;3.40;1.00;;;;;;5102609;28;20069;-87
2021/01/02 08:12:07;;;;;;;33.47;19.40;;;3.60;1.00;;;;;;5102681;28;20078;-88
2021/01/02 08:14:42;;;;;;;33.63;19.25;;;3.50;1.00;;;;;;5113138;28;20120;-88
2021/01/02 08:17:19;;;;;;;36.22;20.48;;;3.40;1.00;;;;;;5114340;28;20160;-87
2021/01/02 08:19:47;;;;;;;36.50;20.05;;;3.30;1.00;;;;;;5114683;28;20023;-87
2021/01/02 08:22:25;;;;;;;34.60;19.92;;;3.30;1.00;;;;;;5114625;28;20023;-88
2021/01/02 08:24:55;;;;;;;34.40;19.83;;;3.80;1.00;;;;;;5098922;28;20024;-88
2021/01/02 08:27:21;;;;;;;34.45;20.33;;;3.40;1.00;;;;;;5094821;28;20024;-88
2021/01/02 08:29:46;;;;;;;32.92;19.52;;;3.20;1.00;;;;;;5093667;28;20050;-88
2021/01/02 08:32:13;;;;;;;33.42;18.80;;;3.50;1.00;;;;;;5093312;28;20032;-88
2021/01/02 08:34:44;;;;;;;35.42;20.48;;;3.20;1.00;;;;;;5093425;28;20439;-88
2021/01/02 08:37:14;;;;;;;38.40;21.17;;;3.40;1.00;;;;;;5094731;28;20187;-87
2021/01/02 08:39:40;;;;;;;36.17;20.88;;;3.80;1.00;;;;;;5094442;28;20512;-88
2021/01/02 08:42:07;;;;;;;36.45;20.80;;;3.60;1.00;;;;;;5094205;28;20518;-88
2021/01/02 08:44:35;;;;;;;54.10;31.98;;;3.40;1.00;;;;;;5093136;28;20031;-88
2021/01/02 08:47:05;;;;;;;40.30;22.38;;;3.80;1.00;;;;;;5092900;28;20051;-89
2021/01/02 08:49:33;;;;;;;38.00;21.65;;;3.30;1.00;;;;;;5095669;28;20027;-88
2021/01/02 08:52:25;;;;;;;43.38;23.17;;;3.40;1.00;;;;;;5103949;28;20439;-89
2021/01/02 08:55:15;;;;;;;38.72;21.75;;;3.60;1.00;;;;;;5102726;28;20032;-89
2021/01/02 08:57:46;;;;;;;39.45;21.98;;;3.40;1.00;;;;;;5098530;28;20101;-91
2021/01/02 09:00:13;;;;;;;39.15;21.48;;;3.40;1.00;;;;;;5111310;28;20028;-90
2021/01/02 09:02:41;;;;;;;38.50;21.45;;;3.50;1.00;;;;;;5098211;28;20035;-90
2021/01/02 09:05:09;;;;;;;45.70;25.17;;;4.10;1.00;;;;;;5095085;28;20069;-92
2021/01/02 09:07:35;;;;;;;40.55;21.92;;;3.60;1.00;;;;;;5104835;28;20056;-90
2021/01/02 09:10:32;;;;;;;42.28;23.17;;;3.90;1.00;;;;;;5105106;28;20020;-90
2021/01/02 09:12:58;;;;;;;40.75;22.13;;;3.50;1.00;;;;;;5095315;28;20032;-90
2021/01/02 09:15:44;;;;;;;39.05;22.52;;;3.50;1.00;;;;;;5106975;28;20049;-91
2021/01/02 09:18:12;;;;;;;38.10;21.35;;;3.40;1.00;;;;;;5101894;28;20261;-90
2021/01/02 09:20:37;;;;;;;35.05;20.05;;;3.80;1.00;;;;;;5095910;28;20020;-91
2021/01/02 09:23:04;;;;;;;41.13;22.23;;;4.00;1.00;;;;;;5096179;28;20038;-90
2021/01/02 09:25:33;;;;;;;39.80;21.45;;;3.40;1.00;;;;;;5109494;28;20034;-90
2021/01/02 09:28:13;;;;;;;35.55;20.67;;;3.40;1.00;;;;;;5107812;28;20019;-90
2021/01/02 09:30:39;;;;;;;39.20;19.55;;;3.70;1.00;;;;;;5094332;28;20024;-90
2021/01/02 09:33:05;;;;;;;37.63;20.67;;;3.70;1.00;;;;;;5110855;28;20045;-90
2021/01/02 09:35:30;;;;;;;40.42;20.90;;;3.70;1.00;;;;;;5102984;28;20023;-92
2021/01/02 09:37:56;;;;;;;40.15;21.48;;;3.20;1.00;;;;;;5097438;28;20103;-94
2021/01/02 09:40:22;;;;;;;41.00;22.17;;;3.50;1.00;;;;;;5102775;28;20062;-91
2021/01/02 09:42:48;;;;;;;39.72;21.65;;;3.40;1.00;;;;;;5104258;28;20058;-96
2021/01/02 09:45:14;;;;;;;39.50;21.90;;;3.60;1.00;;;;;;5094355;28;20047;-92
2021/01/02 09:47:40;;;;;;;39.90;20.85;;;3.40;1.00;;;;;;5097965;28;20119;-91
2021/01/02 09:50:07;;;;;;;41.08;21.85;;;3.30;1.00;;;;;;5091541;28;20116;-93
2021/01/02 09:52:33;;;;;;;42.58;21.45;;;3.30;1.00;;;;;;5093828;28;20032;-91
2021/01/02 09:54:59;;;;;;;39.35;21.48;;;3.20;1.00;;;;;;5110192;28;20069;-91
2021/01/02 09:57:25;;;;;;;35.63;20.73;;;3.70;1.00;;;;;;5110178;28;20116;-92
2021/01/02 09:59:51;;;;;;;40.67;22.27;;;3.50;1.00;;;;;;5103781;28;20115;-90
2021/01/02 10:02:16;;;;;;;41.17;21.45;;;3.40;1.00;;;;;;5093391;28;20028;-91
2021/01/02 10:04:46;;;;;;;39.58;22.17;;;3.40;1.00;;;;;;5091955;28;20020;-92
2021/01/02 10:07:13;;;;;;;37.92;20.80;;;3.70;1.00;;;;;;5098275;28;20044;-91
2021/01/02 10:09:41;;;;;;;38.58;21.77;;;3.40;1.00;;;;;;5096705;28;20024;-92
2021/01/02 10:12:08;;;;;;;41.38;21.77;;;3.20;1.00;;;;;;5099761;28;20058;-92
2021/01/02 10:14:34;;;;;;;37.70;20.98;;;3.60;1.00;;;;;;5097795;28;20020;-91
2021/01/02 10:16:59;;;;;;;36.53;21.17;;;3.80;1.00;;;;;;5110252;28;20048;-92
2021/01/02 10:19:25;;;;;;;38.33;20.90;;;3.90;1.00;;;;;;5109574;28;20047;-92
2021/01/02 10:21:50;;;;;;;39.08;21.30;;;3.80;1.00;;;;;;5112493;28;20035;-92
2021/01/02 10:24:16;;;;;;;40.42;22.13;;;3.70;1.00;;;;;;5112532;28;20019;-95
2021/01/02 10:26:42;;;;;;;37.17;20.88;;;3.70;1.00;;;;;;5110982;28;20055;-92
2021/01/02 10:29:07;;;;;;;36.80;21.70;;;3.50;1.00;;;;;;5112590;28;20030;-92
2021/01/02 10:31:34;;;;;;;40.00;22.73;;;3.40;1.00;;;;;;5112390;28;20019;-91
2021/01/02 10:33:59;;;;;;;37.80;21.52;;;3.60;1.00;;;;;;5110528;28;20019;-91
2021/01/02 10:36:25;;;;;;;40.35;22.75;;;3.70;1.00;;;;;;5112072;28;20023;-91
2021/01/02 10:38:50;;;;;;;40.28;21.73;;;3.70;1.00;;;;;;5112173;28;20063;-91
2021/01/02 10:41:17;;;;;;;40.28;22.45;;;3.30;1.00;;;;;;5112129;28;20028;-91
2021/01/02 10:43:43;;;;;;;41.05;22.65;;;3.90;1.00;;;;;;5112243;28;20542;-90
2021/01/02 10:46:09;;;;;;;40.95;21.02;;;3.90;1.00;;;;;;5112317;28;20119;-90
2021/01/02 10:48:36;;;;;;;38.10;20.05;;;3.60;1.00;;;;;;5096992;28;20039;-90
2021/01/02 10:51:01;;;;;;;41.33;22.50;;;3.90;1.00;;;;;;5091811;28;20024;-91
2021/01/02 10:53:27;;;;;;;35.05;20.50;;;3.40;1.00;;;;;;5092040;28;20078;-91
2021/01/02 10:55:52;;;;;;;37.78;22.02;;;3.90;1.00;;;;;;5091533;28;20036;-90
2021/01/02 10:58:18;;;;;;;43.78;21.90;;;3.50;1.00;;;;;;5091673;28;20024;-90
2021/01/02 11:00:46;;;;;;;39.00;22.83;;;3.60;1.00;;;;;;5112050;28;20089;-90
2021/01/02 11:03:11;;;;;;;38.55;21.40;;;4.00;1.00;;;;;;5101986;28;20055;-89
2021/01/02 11:06:30;;;;;;;36.38;20.48;;;3.80;1.00;;;;;;5092181;28;20093;-91
2021/01/02 11:08:57;;;;;;;37.88;20.30;;;3.50;1.00;;;;;;5092238;28;20055;-91
2021/01/02 11:11:22;;;;;;;35.08;20.58;;;3.80;1.00;;;;;;5092314;28;20202;-92
2021/01/02 11:13:48;;;;;;;35.78;21.20;;;3.70;1.00;;;;;;5092050;28;20039;-92
2021/01/02 11:16:14;;;;;;;38.22;20.02;;;3.70;1.00;;;;;;5092379;28;20481;-92
2021/01/02 11:18:39;;;;;;;36.13;20.30;;;3.40;1.00;;;;;;5093186;28;20375;-92
2021/01/02 11:21:11;;;;;;;40.03;21.60;;;3.80;1.00;;;;;;5095853;28;20039;-93
2021/01/02 11:23:37;;;;;;;34.80;20.73;;;3.60;1.00;;;;;;5095800;28;20111;-93
2021/01/02 11:26:08;;;;;;;36.40;18.90;;;3.70;1.00;;;;;;5095761;28;20059;-93
2021/01/02 11:28:34;;;;;;;36.72;21.23;;;4.00;1.00;;;;;;5095617;28;20020;-93
2021/01/02 11:31:00;;;;;;;38.20;21.20;;;4.00;1.00;;;;;;5095861;28;20038;-93
2021/01/02 11:33:26;;;;;;;36.85;20.05;;;3.90;1.00;;;;;;5101659;28;20538;-92
2021/01/02 11:35:51;;;;;;;41.47;23.10;;;3.70;1.00;;;;;;5116121;28;20032;-93
2021/01/02 11:38:17;;;;;;;51.80;27.30;;;3.90;1.00;;;;;;5115872;28;20024;-93
2021/01/02 11:40:42;;;;;;;33.25;19.70;;;3.70;1.00;;;;;;5115856;28;20400;-90
2021/01/02 11:43:08;;;;;;;42.78;23.35;;;3.80;1.00;;;;;;5116034;27;20027;-91
2021/01/02 11:45:34;;;;;;;45.42;26.55;;;3.50;1.00;;;;;;5115870;28;20031;-90
2021/01/02 11:47:59;;;;;;;36.80;21.75;;;3.80;1.00;;;;;;5113125;28;20016;-91
2021/01/02 11:50:25;;;;;;;37.22;21.45;;;3.60;1.00;;;;;;5096411;28;20120;-92
2021/01/02 11:52:50;;;;;;;39.50;22.83;;;3.60;1.00;;;;;;5095129;28;20081;-90
2021/01/02 11:55:16;;;;;;;32.35;20.13;;;3.90;1.00;;;;;;5094597;28;20107;-91
2021/01/02 11:57:42;;;;;;;34.60;19.73;;;3.70;1.00;;;;;;5094740;28;20229;-90
2021/01/02 12:00:08;;;;;;;36.45;20.42;;;4.20;1.00;;;;;;5102521;27;20031;-90
2021/01/02 12:02:35;;;;;;;31.13;19.48;;;3.80;1.00;;;;;;5135186;27;20016;-89
2021/01/02 12:05:02;;;;;;;35.92;20.38;;;4.20;1.00;;;;;;5096612;27;20039;-92
2021/01/02 12:07:28;;;;;;;33.42;20.85;;;3.80;1.00;;;;;;5094614;28;20036;-91
2021/01/02 12:09:53;;;;;;;37.78;20.58;;;4.20;1.00;;;;;;5094859;28;20074;-91
2021/01/02 12:12:19;;;;;;;33.53;18.55;;;3.70;1.00;;;;;;5094944;28;20024;-89
2021/01/02 12:14:46;;;;;;;31.48;18.75;;;3.70;1.00;;;;;;5094490;28;20500;-89
2021/01/02 12:17:12;;;;;;;31.73;19.48;;;3.90;1.00;;;;;;5094655;28;20020;-88
2021/01/02 12:22:59;;;;;;;34.95;19.27;;;3.70;1.00;;;;;;5115896;28;20026;-87
2021/01/02 12:25:25;;;;;;;32.13;18.83;;;4.10;1.00;;;;;;5114493;28;20019;-86
2021/01/02 12:27:54;;;;;;;33.47;18.70;;;4.00;1.00;;;;;;5114292;28;20019;-87
2021/01/02 12:30:20;;;;;;;34.95;19.35;;;3.80;1.00;;;;;;5114585;28;20028;-88
2021/01/02 12:32:47;;;;;;;32.30;19.27;;;3.90;1.00;;;;;;5109354;28;20547;-88
2021/01/02 12:35:13;;;;;;;31.20;18.40;;;4.30;1.00;;;;;;5094208;28;20624;-88
2021/01/02 12:37:38;;;;;;;29.30;17.60;;;4.10;1.00;;;;;;5093355;28;20072;-88
2021/01/02 12:40:05;;;;;;;30.40;17.85;;;3.90;1.00;;;;;;5093700;28;20028;-88
2021/01/02 12:42:30;;;;;;;32.00;19.45;;;3.70;1.00;;;;;;5095341;28;20161;-88
2021/01/02 12:44:56;;;;;;;32.97;19.48;;;3.70;1.00;;;;;;5095080;28;20108;-88
2021/01/02 12:47:22;;;;;;;31.67;18.20;;;4.10;1.00;;;;;;5093583;28;20024;-88
2021/01/02 12:49:48;;;;;;;34.63;18.95;;;3.80;1.00;;;;;;5093438;28;20054;-88
2021/01/02 12:52:14;;;;;;;34.00;19.20;;;3.60;1.00;;;;;;5093647;28;20051;-88
2021/01/02 12:54:40;;;;;;;38.75;22.20;;;3.70;1.00;;;;;;5095107;28;20051;-88
2021/01/02 12:57:06;;;;;;;35.42;19.83;;;3.60;1.00;;;;;;5093903;28;20473;-88
2021/01/02 12:59:34;;;;;;;37.72;20.67;;;3.70;1.00;;;;;;5093639;28;20024;-88
2021/01/02 13:02:07;;;;;;;38.67;22.30;;;4.00;1.00;;;;;;5093477;28;20035;-88
2021/01/02 13:04:33;;;;;;;38.03;21.60;;;3.80;1.00;;;;;;5107141;28;20114;-87
2021/01/02 13:07:00;;;;;;;32.00;17.63;;;4.10;1.00;;;;;;5113160;28;20169;-88